sensor_id;sensor_type;location;lat;lon;timestamp;pressure;altitude;pressure_sealevel;temperature;humidity
10261;BME280;5175;42.606;23.388;2023-02-12T00:01:13;94664.97;;;0.58;47.67
10261;BME280;5175;42.606;23.388;2023-02-12T00:03:41;94662.16;;;0.59;47.14
10261;BME280;5175;42.606;23.388;2023-02-12T00:06:08;94659.72;;;0.58;47.40
10261;BME280;5175;42.606;23.388;2023-02-12T00:08:37;94664.59;;;0.68;47.33
10261;BME280;5175;42.606;23.388;2023-02-12T00:11:09;94671.28;;;0.70;47.17
10261;BME280;5175;42.606;23.388;2023-02-12T00:13:36;94658.53;;;0.67;46.33
10261;BME280;5175;42.606;23.388;2023-02-12T00:16:05;94663.22;;;0.72;46.79
10261;BME280;5175;42.606;23.388;2023-02-12T00:18:32;94668.09;;;0.81;46.15
10261;BME280;5175;42.606;23.388;2023-02-12T00:21:00;94672.38;;;0.82;47.04
10261;BME280;5175;42.606;23.388;2023-02-12T00:23:27;94674.56;;;0.79;46.67
10261;BME280;5175;42.606;23.388;2023-02-12T00:25:55;94664.28;;;0.84;46.02
10261;BME280;5175;42.606;23.388;2023-02-12T00:28:22;94652.94;;;0.77;46.91
10261;BME280;5175;42.606;23.388;2023-02-12T00:30:49;94672.16;;;0.84;46.62
10261;BME280;5175;42.606;23.388;2023-02-12T00:33:15;94662.03;;;0.74;46.23
10261;BME280;5175;42.606;23.388;2023-02-12T00:35:42;94661.88;;;0.89;46.51
10261;BME280;5175;42.606;23.388;2023-02-12T00:38:09;94644.88;;;0.85;46.00
10261;BME280;5175;42.606;23.388;2023-02-12T00:40:35;94653.78;;;0.90;46.41
10261;BME280;5175;42.606;23.388;2023-02-12T00:43:03;94647.31;;;0.93;46.34
10261;BME280;5175;42.606;23.388;2023-02-12T00:45:31;94650.53;;;0.88;46.44
10261;BME280;5175;42.606;23.388;2023-02-12T00:47:57;94636.59;;;0.81;46.57
10261;BME280;5175;42.606;23.388;2023-02-12T00:50:24;94634.13;;;0.80;46.90
10261;BME280;5175;42.606;23.388;2023-02-12T00:52:51;94644.44;;;0.75;46.48
10261;BME280;5175;42.606;23.388;2023-02-12T00:55:18;94640.59;;;0.77;46.42
10261;BME280;5175;42.606;23.388;2023-02-12T00:57:44;94636.75;;;0.73;46.35
10261;BME280;5175;42.606;23.388;2023-02-12T01:00:15;94630.53;;;0.81;46.83
10261;BME280;5175;42.606;23.388;2023-02-12T01:02:42;94636.59;;;0.81;47.32
10261;BME280;5175;42.606;23.388;2023-02-12T01:05:09;94613.38;;;0.98;45.93
10261;BME280;5175;42.606;23.388;2023-02-12T01:07:35;94609.53;;;1.00;46.07
10261;BME280;5175;42.606;23.388;2023-02-12T01:10:04;94607.31;;;0.91;46.06
10261;BME280;5175;42.606;23.388;2023-02-12T01:12:31;94603.69;;;0.92;45.74
10261;BME280;5175;42.606;23.388;2023-02-12T01:14:58;94589.91;;;0.77;45.97
10261;BME280;5175;42.606;23.388;2023-02-12T01:17:26;94621.28;;;1.04;46.39
10261;BME280;5175;42.606;23.388;2023-02-12T01:19:56;94612.97;;;1.01;46.03
10261;BME280;5175;42.606;23.388;2023-02-12T01:22:23;94628.97;;;0.99;46.46
10261;BME280;5175;42.606;23.388;2023-02-12T01:24:50;94622.50;;;1.08;47.38
10261;BME280;5175;42.606;23.388;2023-02-12T01:27:17;94622.88;;;0.99;46.40
10261;BME280;5175;42.606;23.388;2023-02-12T01:29:44;94618.66;;;1.04;46.72
10261;BME280;5175;42.606;23.388;2023-02-12T01:32:10;94620.25;;;0.92;46.71
10261;BME280;5175;42.606;23.388;2023-02-12T01:34:38;94625.31;;;1.00;46.62
10261;BME280;5175;42.606;23.388;2023-02-12T01:37:05;94586.69;;;0.88;47.13
10261;BME280;5175;42.606;23.388;2023-02-12T01:39:32;94611.78;;;1.03;48.04
10261;BME280;5175;42.606;23.388;2023-02-12T01:42:00;94603.91;;;0.97;48.46
10261;BME280;5175;42.606;23.388;2023-02-12T01:44:29;94602.25;;;0.89;47.87
10261;BME280;5175;42.606;23.388;2023-02-12T01:46:57;94592.19;;;0.99;48.28
10261;BME280;5175;42.606;23.388;2023-02-12T01:49:27;94576.78;;;0.83;47.27
10261;BME280;5175;42.606;23.388;2023-02-12T01:52:02;94591.38;;;0.92;48.03
10261;BME280;5175;42.606;23.388;2023-02-12T01:54:31;94593.78;;;1.00;48.32
10261;BME280;5175;42.606;23.388;2023-02-12T01:56:59;94580.25;;;1.03;48.40
10261;BME280;5175;42.606;23.388;2023-02-12T01:59:28;94575.19;;;1.02;48.33
10261;BME280;5175;42.606;23.388;2023-02-12T02:01:55;94570.56;;;0.97;48.03
10261;BME280;5175;42.606;23.388;2023-02-12T02:04:24;94564.66;;;0.89;48.47
10261;BME280;5175;42.606;23.388;2023-02-12T02:06:56;94583.47;;;0.99;48.62
10261;BME280;5175;42.606;23.388;2023-02-12T02:09:24;94573.56;;;0.81;48.88
10261;BME280;5175;42.606;23.388;2023-02-12T02:11:52;94580.00;;;0.85;48.58
10261;BME280;5175;42.606;23.388;2023-02-12T02:14:36;94583.28;;;0.87;49.48
10261;BME280;5175;42.606;23.388;2023-02-12T02:17:14;94586.91;;;0.99;49.32
10261;BME280;5175;42.606;23.388;2023-02-12T02:19:55;94589.94;;;1.03;49.39
10261;BME280;5175;42.606;23.388;2023-02-12T02:22:30;94602.25;;;0.96;49.76
10261;BME280;5175;42.606;23.388;2023-02-12T02:25:19;94580.81;;;0.86;49.11
10261;BME280;5175;42.606;23.388;2023-02-12T02:28:02;94603.91;;;1.10;48.90
10261;BME280;5175;42.606;23.388;2023-02-12T02:30:38;94595.00;;;1.11;48.72
10261;BME280;5175;42.606;23.388;2023-02-12T02:33:19;94601.69;;;1.13;48.87
10261;BME280;5175;42.606;23.388;2023-02-12T02:35:53;94601.69;;;1.13;49.38
10261;BME280;5175;42.606;23.388;2023-02-12T02:38:27;94586.94;;;1.12;50.38
10261;BME280;5175;42.606;23.388;2023-02-12T02:41:02;94589.16;;;1.02;50.94
10261;BME280;5175;42.606;23.388;2023-02-12T02:43:34;94593.56;;;0.95;51.55
10261;BME280;5175;42.606;23.388;2023-02-12T02:46:05;94587.94;;;1.05;51.25
10261;BME280;5175;42.606;23.388;2023-02-12T02:48:35;94591.97;;;0.94;51.27
10261;BME280;5175;42.606;23.388;2023-02-12T02:51:06;94594.81;;;0.99;51.56
10261;BME280;5175;42.606;23.388;2023-02-12T02:53:38;94609.56;;;1.07;52.34
10261;BME280;5175;42.606;23.388;2023-02-12T02:56:11;94603.06;;;1.03;53.02
10261;BME280;5175;42.606;23.388;2023-02-12T02:58:42;94600.44;;;1.03;53.17
10261;BME280;5175;42.606;23.388;2023-02-12T03:01:15;94597.81;;;1.03;52.83
10261;BME280;5175;42.606;23.388;2023-02-12T03:03:48;94603.31;;;1.14;52.12
10261;BME280;5175;42.606;23.388;2023-02-12T03:06:21;94609.75;;;1.05;52.67
10261;BME280;5175;42.606;23.388;2023-02-12T03:08:52;94600.47;;;1.09;52.70
10261;BME280;5175;42.606;23.388;2023-02-12T03:11:23;94608.56;;;1.14;53.36
10261;BME280;5175;42.606;23.388;2023-02-12T03:13:54;94594.41;;;1.09;53.29
10261;BME280;5175;42.606;23.388;2023-02-12T03:16:25;94601.69;;;1.13;52.83
10261;BME280;5175;42.606;23.388;2023-02-12T03:18:54;94603.69;;;1.11;53.32
10261;BME280;5175;42.606;23.388;2023-02-12T03:21:29;94592.59;;;1.09;53.50
10261;BME280;5175;42.606;23.388;2023-02-12T03:24:01;94583.91;;;1.09;52.87
10261;BME280;5175;42.606;23.388;2023-02-12T03:26:37;94593.97;;;1.05;52.73
10261;BME280;5175;42.606;23.388;2023-02-12T03:29:04;94577.00;;;0.88;53.80
10261;BME280;5175;42.606;23.388;2023-02-12T03:31:38;94595.81;;;1.11;53.73
10261;BME280;5175;42.606;23.388;2023-02-12T03:34:12;94594.44;;;1.15;53.60
10261;BME280;5175;42.606;23.388;2023-02-12T03:36:47;94590.78;;;1.23;53.87
10261;BME280;5175;42.606;23.388;2023-02-12T03:39:23;94586.72;;;1.34;53.73
10261;BME280;5175;42.606;23.388;2023-02-12T03:41:59;94591.59;;;1.30;53.44
10261;BME280;5175;42.606;23.388;2023-02-12T03:44:38;94590.78;;;1.30;53.38
10261;BME280;5175;42.606;23.388;2023-02-12T03:47:16;94570.56;;;1.30;53.26
10261;BME280;5175;42.606;23.388;2023-02-12T03:49:48;94587.34;;;1.36;53.94
10261;BME280;5175;42.606;23.388;2023-02-12T03:52:19;94585.75;;;1.41;54.19
10261;BME280;5175;42.606;23.388;2023-02-12T03:54:46;94583.91;;;1.48;54.58
10261;BME280;5175;42.606;23.388;2023-02-12T03:57:15;94582.31;;;1.54;55.11
10261;BME280;5175;42.606;23.388;2023-02-12T03:59:43;94587.97;;;1.51;54.90
10261;BME280;5175;42.606;23.388;2023-02-12T04:02:13;94576.81;;;1.29;55.33
10261;BME280;5175;42.606;23.388;2023-02-12T04:04:40;94583.69;;;1.37;55.16
10261;BME280;5175;42.606;23.388;2023-02-12T04:07:07;94594.63;;;1.14;56.45
10261;BME280;5175;42.606;23.388;2023-02-12T04:09:34;94576.44;;;1.25;56.03
10261;BME280;5175;42.606;23.388;2023-02-12T04:12:14;94583.72;;;1.10;55.72
10261;BME280;5175;42.606;23.388;2023-02-12T04:14:52;94586.31;;;0.97;56.90
10261;BME280;5175;42.606;23.388;2023-02-12T04:17:29;94584.91;;;1.01;57.34
10261;BME280;5175;42.606;23.388;2023-02-12T04:20:07;94581.63;;;0.93;57.36
10261;BME280;5175;42.606;23.388;2023-02-12T04:22:45;94589.13;;;0.96;57.77
10261;BME280;5175;42.606;23.388;2023-02-12T04:25:23;94595.38;;;0.88;58.04
10261;BME280;5175;42.606;23.388;2023-02-12T04:27:58;94596.41;;;0.94;58.23
10261;BME280;5175;42.606;23.388;2023-02-12T04:30:30;94608.34;;;0.96;57.66
10261;BME280;5175;42.606;23.388;2023-02-12T04:33:03;94604.06;;;0.89;58.52
10261;BME280;5175;42.606;23.388;2023-02-12T04:35:32;94611.53;;;0.85;57.59
10261;BME280;5175;42.606;23.388;2023-02-12T04:38:04;94610.13;;;0.89;58.02
10261;BME280;5175;42.606;23.388;2023-02-12T04:40:34;94614.59;;;0.82;58.10
10261;BME280;5175;42.606;23.388;2023-02-12T04:43:01;94616.25;;;0.49;60.36
10261;BME280;5175;42.606;23.388;2023-02-12T04:45:29;94618.34;;;0.60;59.43
10261;BME280;5175;42.606;23.388;2023-02-12T04:47:58;94623.63;;;0.67;59.71
10261;BME280;5175;42.606;23.388;2023-02-12T04:50:31;94627.25;;;0.66;59.75
10261;BME280;5175;42.606;23.388;2023-02-12T04:53:03;94630.47;;;0.68;58.68
10261;BME280;5175;42.606;23.388;2023-02-12T04:55:29;94623.59;;;0.60;60.30
10261;BME280;5175;42.606;23.388;2023-02-12T04:57:56;94617.50;;;0.59;60.49
10261;BME280;5175;42.606;23.388;2023-02-12T05:00:23;94620.34;;;0.58;60.07
10261;BME280;5175;42.606;23.388;2023-02-12T05:02:50;94627.63;;;0.56;61.12
10261;BME280;5175;42.606;23.388;2023-02-12T05:05:16;94616.69;;;0.52;60.54
10261;BME280;5175;42.606;23.388;2023-02-12T05:07:44;94610.84;;;0.57;61.66
10261;BME280;5175;42.606;23.388;2023-02-12T05:10:11;94614.13;;;0.66;61.45
10261;BME280;5175;42.606;23.388;2023-02-12T05:12:38;94616.94;;;0.64;61.91
10261;BME280;5175;42.606;23.388;2023-02-12T05:15:05;94622.41;;;0.76;62.14
10261;BME280;5175;42.606;23.388;2023-02-12T05:17:32;94626.25;;;0.80;60.56
10261;BME280;5175;42.606;23.388;2023-02-12T05:19:58;94618.97;;;0.69;61.63
10261;BME280;5175;42.606;23.388;2023-02-12T05:22:25;94617.38;;;0.74;61.14
10261;BME280;5175;42.606;23.388;2023-02-12T05:24:53;94633.53;;;0.71;61.18
10261;BME280;5175;42.606;23.388;2023-02-12T05:27:20;94628.44;;;0.56;63.76
10261;BME280;5175;42.606;23.388;2023-02-12T05:29:46;94647.59;;;0.57;62.80
10261;BME280;5175;42.606;23.388;2023-02-12T05:32:13;94647.41;;;0.58;63.13
10261;BME280;5175;42.606;23.388;2023-02-12T05:34:40;94660.38;;;0.67;62.85
10261;BME280;5175;42.606;23.388;2023-02-12T05:37:06;94664.81;;;0.66;62.84
10261;BME280;5175;42.606;23.388;2023-02-12T05:39:33;94657.81;;;0.39;71.10
10261;BME280;5175;42.606;23.388;2023-02-12T05:42:01;94652.16;;;0.35;72.27
10261;BME280;5175;42.606;23.388;2023-02-12T05:44:28;94651.25;;;0.56;72.42
10261;BME280;5175;42.606;23.388;2023-02-12T05:46:54;94646.41;;;0.59;71.72
10261;BME280;5175;42.606;23.388;2023-02-12T05:49:21;94633.22;;;0.46;71.71
10261;BME280;5175;42.606;23.388;2023-02-12T05:51:48;94652.69;;;0.65;71.32
10261;BME280;5175;42.606;23.388;2023-02-12T05:54:15;94653.72;;;0.71;69.22
10261;BME280;5175;42.606;23.388;2023-02-12T05:56:43;94654.75;;;0.76;68.62
10261;BME280;5175;42.606;23.388;2023-02-12T05:59:14;94660.00;;;0.83;68.56
10261;BME280;5175;42.606;23.388;2023-02-12T06:01:42;94666.31;;;0.88;67.95
10261;BME280;5175;42.606;23.388;2023-02-12T06:04:12;94659.84;;;0.84;68.17
10261;BME280;5175;42.606;23.388;2023-02-12T06:06:39;94660.28;;;1.01;67.99
10261;BME280;5175;42.606;23.388;2023-02-12T06:09:08;94661.84;;;0.82;70.40
10261;BME280;5175;42.606;23.388;2023-02-12T06:11:35;94661.38;;;0.66;73.21
10261;BME280;5175;42.606;23.388;2023-02-12T06:14:02;94668.44;;;0.58;73.68
10261;BME280;5175;42.606;23.388;2023-02-12T06:16:31;94662.19;;;0.66;75.08
10261;BME280;5175;42.606;23.388;2023-02-12T06:19:00;94658.53;;;0.67;75.32
10261;BME280;5175;42.606;23.388;2023-02-12T06:21:27;94663.94;;;0.52;77.31
10261;BME280;5175;42.606;23.388;2023-02-12T06:23:54;94662.53;;;0.50;77.84
10261;BME280;5175;42.606;23.388;2023-02-12T06:26:22;94654.47;;;0.58;77.44
10261;BME280;5175;42.606;23.388;2023-02-12T06:28:49;94660.72;;;0.57;78.08
10261;BME280;5175;42.606;23.388;2023-02-12T06:31:18;94664.22;;;0.64;78.95
10261;BME280;5175;42.606;23.388;2023-02-12T06:33:46;94657.53;;;0.61;78.73
10261;BME280;5175;42.606;23.388;2023-02-12T06:36:14;94661.31;;;0.52;79.27
10261;BME280;5175;42.606;23.388;2023-02-12T06:38:41;94663.56;;;0.55;80.54
10261;BME280;5175;42.606;23.388;2023-02-12T06:41:07;94662.97;;;0.60;82.81
10261;BME280;5175;42.606;23.388;2023-02-12T06:43:35;94666.84;;;0.71;82.88
10261;BME280;5175;42.606;23.388;2023-02-12T06:46:02;94672.38;;;0.82;83.44
10261;BME280;5175;42.606;23.388;2023-02-12T06:48:30;94643.75;;;0.53;84.11
10261;BME280;5175;42.606;23.388;2023-02-12T06:51:05;94675.91;;;0.61;85.10
10261;BME280;5175;42.606;23.388;2023-02-12T06:53:32;94671.63;;;0.54;84.72
10261;BME280;5175;42.606;23.388;2023-02-12T06:56:00;94662.97;;;0.60;84.58
10261;BME280;5175;42.606;23.388;2023-02-12T06:58:27;94678.78;;;0.73;83.74
10261;BME280;5175;42.606;23.388;2023-02-12T07:00:54;94674.53;;;0.72;83.82
10261;BME280;5175;42.606;23.388;2023-02-12T07:03:21;94675.53;;;0.71;84.03
10261;BME280;5175;42.606;23.388;2023-02-12T07:05:47;94683.22;;;0.73;83.68
10261;BME280;5175;42.606;23.388;2023-02-12T07:08:15;94677.56;;;0.76;83.38
10261;BME280;5175;42.606;23.388;2023-02-12T07:10:47;94678.38;;;0.76;82.60
10261;BME280;5175;42.606;23.388;2023-02-12T07:13:14;94684.25;;;0.78;83.25
10261;BME280;5175;42.606;23.388;2023-02-12T07:15:40;94676.97;;;0.80;84.09
10261;BME280;5175;42.606;23.388;2023-02-12T07:18:07;94684.91;;;0.93;82.83
10261;BME280;5175;42.606;23.388;2023-02-12T07:20:34;94678.84;;;0.93;83.01
10261;BME280;5175;42.606;23.388;2023-02-12T07:23:00;94684.91;;;0.87;83.35
10261;BME280;5175;42.606;23.388;2023-02-12T07:25:28;94678.84;;;0.93;83.14
10261;BME280;5175;42.606;23.388;2023-02-12T07:27:55;94685.72;;;0.94;83.28
10261;BME280;5175;42.606;23.388;2023-02-12T07:30:22;94664.06;;;0.85;83.54
10261;BME280;5175;42.606;23.388;2023-02-12T07:32:49;94685.94;;;0.92;83.55
10261;BME280;5175;42.606;23.388;2023-02-12T07:35:15;94678.22;;;0.91;84.52
10261;BME280;5175;42.606;23.388;2023-02-12T07:37:42;94682.50;;;0.98;84.54
10261;BME280;5175;42.606;23.388;2023-02-12T07:40:09;94692.63;;;1.08;84.21
10261;BME280;5175;42.606;23.388;2023-02-12T07:42:37;94690.81;;;1.08;83.91
10261;BME280;5175;42.606;23.388;2023-02-12T07:45:04;94696.28;;;1.13;83.92
10261;BME280;5175;42.606;23.388;2023-02-12T07:47:31;94705.41;;;1.17;83.46
10261;BME280;5175;42.606;23.388;2023-02-12T07:50:00;94703.56;;;1.11;84.00
10261;BME280;5175;42.606;23.388;2023-02-12T07:52:26;94700.75;;;1.19;83.45
10261;BME280;5175;42.606;23.388;2023-02-12T07:54:53;94696.28;;;1.13;84.03
10261;BME280;5175;42.606;23.388;2023-02-12T07:57:20;94703.56;;;1.11;84.75
10261;BME280;5175;42.606;23.388;2023-02-12T07:59:48;94705.56;;;1.09;85.21
10261;BME280;5175;42.606;23.388;2023-02-12T08:02:14;94706.13;;;0.98;85.10
10261;BME280;5175;42.606;23.388;2023-02-12T08:04:41;94705.53;;;0.96;87.07
10261;BME280;5175;42.606;23.388;2023-02-12T08:07:08;94707.13;;;0.91;87.59
10261;BME280;5175;42.606;23.388;2023-02-12T08:09:34;94715.56;;;0.80;88.20
10261;BME280;5175;42.606;23.388;2023-02-12T08:12:01;94714.63;;;0.53;90.59
10261;BME280;5175;42.606;23.388;2023-02-12T08:14:28;94712.75;;;0.88;89.30
10261;BME280;5175;42.606;23.388;2023-02-12T08:16:56;94712.81;;;0.94;88.97
10261;BME280;5175;42.606;23.388;2023-02-12T08:19:23;94711.59;;;0.97;88.19
10261;BME280;5175;42.606;23.388;2023-02-12T08:21:50;94720.09;;;0.99;88.21
10261;BME280;5175;42.606;23.388;2023-02-12T08:24:17;94671.88;;;0.72;88.51
10261;BME280;5175;42.606;23.388;2023-02-12T08:26:44;94721.78;;;1.13;88.35
10261;BME280;5175;42.606;23.388;2023-02-12T08:29:12;94729.66;;;1.19;88.11
10261;BME280;5175;42.606;23.388;2023-02-12T08:31:40;94730.59;;;0.92;89.47
10261;BME280;5175;42.606;23.388;2023-02-12T08:34:16;94729.19;;;0.96;89.53
10261;BME280;5175;42.606;23.388;2023-02-12T08:36:43;94728.53;;;0.88;90.30
10261;BME280;5175;42.606;23.388;2023-02-12T08:39:10;94735.84;;;0.92;90.43
10261;BME280;5175;42.606;23.388;2023-02-12T08:41:38;94730.16;;;0.89;90.43
10261;BME280;5175;42.606;23.388;2023-02-12T08:44:07;94742.31;;;1.03;90.14
10261;BME280;5175;42.606;23.388;2023-02-12T08:46:36;94750.47;;;1.21;89.74
10261;BME280;5175;42.606;23.388;2023-02-12T08:49:05;94757.00;;;1.32;88.12
10261;BME280;5175;42.606;23.388;2023-02-12T08:51:37;94762.41;;;1.23;87.79
10261;BME280;5175;42.606;23.388;2023-02-12T08:54:06;94762.25;;;1.32;88.42
10261;BME280;5175;42.606;23.388;2023-02-12T08:56:33;94764.69;;;1.40;87.44
10261;BME280;5175;42.606;23.388;2023-02-12T08:59:02;94764.91;;;1.38;86.80
10261;BME280;5175;42.606;23.388;2023-02-12T09:01:30;94767.72;;;1.37;87.89
10261;BME280;5175;42.606;23.388;2023-02-12T09:03:58;94769.78;;;1.48;87.98
10261;BME280;5175;42.606;23.388;2023-02-12T09:06:26;94766.16;;;1.49;88.03
10261;BME280;5175;42.606;23.388;2023-02-12T09:08:54;94770.59;;;1.55;87.70
10261;BME280;5175;42.606;23.388;2023-02-12T09:11:23;94767.97;;;1.48;87.95
10261;BME280;5175;42.606;23.388;2023-02-12T09:13:55;94776.03;;;1.47;88.20
10261;BME280;5175;42.606;23.388;2023-02-12T09:16:22;94773.91;;;1.16;88.99
10261;BME280;5175;42.606;23.388;2023-02-12T09:18:49;94772.09;;;1.16;90.88
10261;BME280;5175;42.606;23.388;2023-02-12T09:21:16;94779.75;;;1.05;92.08
10261;BME280;5175;42.606;23.388;2023-02-12T09:23:44;94773.94;;;1.22;91.18
10261;BME280;5175;42.606;23.388;2023-02-12T09:26:13;94769.47;;;1.16;90.60
10261;BME280;5175;42.606;23.388;2023-02-12T09:28:41;94777.06;;;0.98;92.75
10261;BME280;5175;42.606;23.388;2023-02-12T09:31:09;94782.75;;;1.02;93.23
10261;BME280;5175;42.606;23.388;2023-02-12T09:33:37;94751.38;;;0.87;93.30
10261;BME280;5175;42.606;23.388;2023-02-12T09:36:06;94769.84;;;1.07;94.30
10261;BME280;5175;42.606;23.388;2023-02-12T09:38:33;94770.47;;;1.09;94.64
10261;BME280;5175;42.606;23.388;2023-02-12T09:41:17;94761.59;;;1.16;93.26
10261;BME280;5175;42.606;23.388;2023-02-12T09:43:52;94762.19;;;1.18;93.37
10261;BME280;5175;42.606;23.388;2023-02-12T09:46:26;94766.13;;;1.36;93.62
10261;BME280;5175;42.606;23.388;2023-02-12T09:48:59;94772.41;;;1.41;92.77
10261;BME280;5175;42.606;23.388;2023-02-12T09:51:31;94770.34;;;1.37;91.06
10261;BME280;5175;42.606;23.388;2023-02-12T09:54:02;94778.06;;;1.38;92.36
10261;BME280;5175;42.606;23.388;2023-02-12T09:56:33;94781.72;;;1.44;91.85
10261;BME280;5175;42.606;23.388;2023-02-12T09:59:03;94784.31;;;1.37;91.68
10261;BME280;5175;42.606;23.388;2023-02-12T10:01:30;94774.59;;;1.38;91.89
10261;BME280;5175;42.606;23.388;2023-02-12T10:03:58;94777.25;;;1.38;90.81
10261;BME280;5175;42.606;23.388;2023-02-12T10:06:27;94765.84;;;1.17;91.78
10261;BME280;5175;42.606;23.388;2023-02-12T10:09:02;94779.88;;;1.38;91.08
10261;BME280;5175;42.606;23.388;2023-02-12T10:11:41;94784.78;;;1.54;91.94
10261;BME280;5175;42.606;23.388;2023-02-12T10:14:36;94788.44;;;1.66;91.44
10261;BME280;5175;42.606;23.388;2023-02-12T10:17:14;94788.22;;;1.67;90.80
10261;BME280;5175;42.606;23.388;2023-02-12T10:20:00;94787.84;;;1.90;90.28
10261;BME280;5175;42.606;23.388;2023-02-12T10:22:37;94796.78;;;2.09;89.02
10261;BME280;5175;42.606;23.388;2023-02-12T10:25:15;94796.34;;;1.79;89.07
10261;BME280;5175;42.606;23.388;2023-02-12T10:27:49;94809.66;;;1.51;91.05
10261;BME280;5175;42.606;23.388;2023-02-12T10:30:19;94807.47;;;1.68;92.41
10261;BME280;5175;42.606;23.388;2023-02-12T10:32:50;94799.53;;;1.48;91.80
10261;BME280;5175;42.606;23.388;2023-02-12T10:35:20;94803.97;;;1.48;93.32
10261;BME280;5175;42.606;23.388;2023-02-12T10:37:52;94810.16;;;1.27;94.08
10261;BME280;5175;42.606;23.388;2023-02-12T10:40:23;94795.63;;;1.38;94.31
10261;BME280;5175;42.606;23.388;2023-02-12T10:42:55;94801.94;;;1.43;94.54
10261;BME280;5175;42.606;23.388;2023-02-12T10:45:24;94802.38;;;1.60;93.79
10261;BME280;5175;42.606;23.388;2023-02-12T10:48:03;94801.38;;;1.61;93.25
10261;BME280;5175;42.606;23.388;2023-02-12T10:50:40;94806.06;;;1.85;93.37
10261;BME280;5175;42.606;23.388;2023-02-12T10:53:12;94806.06;;;1.72;92.91
10261;BME280;5175;42.606;23.388;2023-02-12T10:55:42;94809.69;;;1.71;91.76
10261;BME280;5175;42.606;23.388;2023-02-12T10:58:19;94809.81;;;1.43;93.52
10261;BME280;5175;42.606;23.388;2023-02-12T11:00:55;94798.53;;;1.08;95.41
10261;BME280;5175;42.606;23.388;2023-02-12T11:03:26;94802.59;;;1.11;96.82
10261;BME280;5175;42.606;23.388;2023-02-12T11:05:53;94797.38;;;1.17;97.57
10261;BME280;5175;42.606;23.388;2023-02-12T11:08:34;94769.03;;;1.06;97.42
10261;BME280;5175;42.606;23.388;2023-02-12T11:11:05;94791.31;;;1.10;98.46
10261;BME280;5175;42.606;23.388;2023-02-12T11:13:34;94793.78;;;1.25;97.75
10261;BME280;5175;42.606;23.388;2023-02-12T11:16:02;94801.69;;;1.32;98.13
10261;BME280;5175;42.606;23.388;2023-02-12T11:18:30;94796.06;;;1.54;97.52
10261;BME280;5175;42.606;23.388;2023-02-12T11:21:00;94792.69;;;1.80;95.91
10261;BME280;5175;42.606;23.388;2023-02-12T11:23:28;94799.81;;;2.06;93.20
10261;BME280;5175;42.606;23.388;2023-02-12T11:25:58;94790.53;;;2.36;90.13
10261;BME280;5175;42.606;23.388;2023-02-12T11:28:25;94793.56;;;2.52;90.76
10261;BME280;5175;42.606;23.388;2023-02-12T11:30:56;94789.84;;;2.86;88.10
10261;BME280;5175;42.606;23.388;2023-02-12T11:33:31;94793.25;;;3.06;85.77
10261;BME280;5175;42.606;23.388;2023-02-12T11:36:01;94793.19;;;3.26;84.21
10261;BME280;5175;42.606;23.388;2023-02-12T11:38:32;94785.00;;;3.41;83.32
10261;BME280;5175;42.606;23.388;2023-02-12T11:41:04;94786.06;;;3.27;83.75
10261;BME280;5175;42.606;23.388;2023-02-12T11:43:34;94791.34;;;3.33;83.09
10261;BME280;5175;42.606;23.388;2023-02-12T11:46:06;94794.22;;;3.18;83.53
10261;BME280;5175;42.606;23.388;2023-02-12T11:48:36;94796.09;;;3.05;84.71
10261;BME280;5175;42.606;23.388;2023-02-12T11:51:06;94797.47;;;3.14;85.15
10261;BME280;5175;42.606;23.388;2023-02-12T11:53:36;94788.69;;;3.33;84.45
10261;BME280;5175;42.606;23.388;2023-02-12T11:56:08;94790.47;;;3.39;83.18
10261;BME280;5175;42.606;23.388;2023-02-12T11:58:36;94797.09;;;3.55;82.92
10261;BME280;5175;42.606;23.388;2023-02-12T12:01:11;94797.63;;;3.70;82.78
10261;BME280;5175;42.606;23.388;2023-02-12T12:03:46;94802.47;;;3.79;80.95
10261;BME280;5175;42.606;23.388;2023-02-12T12:06:30;94771.88;;;3.72;79.37
10261;BME280;5175;42.606;23.388;2023-02-12T12:09:03;94805.13;;;3.73;79.62
10261;BME280;5175;42.606;23.388;2023-02-12T12:11:37;94803.19;;;3.55;80.42
10261;BME280;5175;42.606;23.388;2023-02-12T12:14:11;94806.28;;;3.46;82.19
10261;BME280;5175;42.606;23.388;2023-02-12T12:16:48;94808.28;;;3.57;80.95
10261;BME280;5175;42.606;23.388;2023-02-12T12:19:42;94813.09;;;3.09;83.70
10261;BME280;5175;42.606;23.388;2023-02-12T12:22:41;94816.78;;;3.08;83.88
10261;BME280;5175;42.606;23.388;2023-02-12T12:25:16;94808.03;;;3.14;84.49
10261;BME280;5175;42.606;23.388;2023-02-12T12:27:55;94803.34;;;3.23;83.61
10261;BME280;5175;42.606;23.388;2023-02-12T12:30:38;94804.03;;;3.49;81.64
10261;BME280;5175;42.606;23.388;2023-02-12T12:33:11;94798.16;;;3.54;82.19
10261;BME280;5175;42.606;23.388;2023-02-12T12:35:46;94813.94;;;3.60;81.24
10261;BME280;5175;42.606;23.388;2023-02-12T12:38:22;94822.38;;;3.75;79.91
10261;BME280;5175;42.606;23.388;2023-02-12T12:41:01;94833.63;;;3.96;78.90
10261;BME280;5175;42.606;23.388;2023-02-12T12:43:44;94831.31;;;4.12;77.83
10261;BME280;5175;42.606;23.388;2023-02-12T12:46:30;94831.88;;;4.21;76.15
10261;BME280;5175;42.606;23.388;2023-02-12T12:49:16;94834.50;;;3.90;76.20
10261;BME280;5175;42.606;23.388;2023-02-12T12:52:00;94835.53;;;3.38;77.50
10261;BME280;5175;42.606;23.388;2023-02-12T12:54:40;94834.75;;;3.31;79.42
10261;BME280;5175;42.606;23.388;2023-02-12T12:57:17;94828.25;;;3.33;80.11
10261;BME280;5175;42.606;23.388;2023-02-12T13:00:06;94834.22;;;3.60;79.18
10261;BME280;5175;42.606;23.388;2023-02-12T13:09:09;94829.13;;;3.71;77.64
10261;BME280;5175;42.606;23.388;2023-02-12T13:11:45;94840.09;;;3.68;77.38
10261;BME280;5175;42.606;23.388;2023-02-12T13:14:26;94839.78;;;3.45;79.30
10261;BME280;5175;42.606;23.388;2023-02-12T13:17:01;94846.91;;;3.32;80.82
10261;BME280;5175;42.606;23.388;2023-02-12T13:19:41;94855.78;;;3.50;79.96
10261;BME280;5175;42.606;23.388;2023-02-12T13:22:15;94847.72;;;3.32;79.34
10261;BME280;5175;42.606;23.388;2023-02-12T13:24:49;94829.53;;;3.11;81.42
10261;BME280;5175;42.606;23.388;2023-02-12T13:27:20;94846.13;;;3.25;81.90
10261;BME280;5175;42.606;23.388;2023-02-12T13:29:50;94848.56;;;3.20;82.46
10261;BME280;5175;42.606;23.388;2023-02-12T13:32:23;94834.78;;;3.17;82.24
10261;BME280;5175;42.606;23.388;2023-02-12T13:34:52;94848.94;;;3.30;81.36